Flight Track Log - Related Links

Times and Time Zones

All times are in EDT time to prevent confusion due to time zone crossing. See the CTL15 flight status page for this flight to view local times or setup timezone preferences in your user account.

Time Position Orientation Groundspeed Altitude Reporting Facility
EDT Latitude Longitude Course Direction KTS MPH feet Rate Location/Type
Tue 07:40:25 PM 39.5772 -84.1989 43° Northeast 140 161 1,900  Level Indianapolis Center
Tue 07:42:13 PM 39.6314 -84.1322 43° Northeast 157 181 3,200 710 Climbing Indianapolis Center
Tue 07:43:14 PM 39.6669 -84.0919 41° Northeast 163 188 3,900 732 Climbing Indianapolis Center
Tue 07:44:16 PM 39.7017 -84.0511 42° Northeast 166 191 4,700 732 Climbing Indianapolis Center
Tue 07:45:17 PM 39.7414 -84.0036 43° Northeast 172 198 5,400 689 Climbing Indianapolis Center
Tue 07:46:18 PM 39.7739 -83.9617 45° Northeast 168 193 6,100 738 Climbing Indianapolis Center
Tue 07:47:19 PM 39.8069 -83.9142 48° Northeast 164 189 6,900 432 Climbing Indianapolis Center
Tue 07:48:23 PM 39.8400 -83.8681 47° Northeast 167 192 7,000  Climbing Indianapolis Center
Tue 07:49:25 PM 39.8772 -83.8211 44° Northeast 176 203 6,900 -54 Descending Indianapolis Center
Tue 07:50:15 PM 39.9111 -83.7808 42° Northeast 189 217 6,900  Level Indianapolis Center
Tue 07:51:16 PM 39.9464 -83.7308 47° Northeast 187 215 6,900  Level Indianapolis Center
Tue 07:52:29 PM 39.9928 -83.6711 45° Northeast 184 212 6,900 44 Level Indianapolis Center
Tue 07:53:32 PM 40.0258 -83.6261 46° Northeast 185 213 7,000  Climbing Indianapolis Center
Tue 07:54:35 PM 40.0647 -83.5819 41° Northeast 184 212 6,900  Descending Indianapolis Center
Tue 07:55:19 PM 40.0964 -83.5425 44° Northeast 183 211 7,000 100 Climbing Indianapolis Center
Tue 07:55:35 PM 40.1019 -83.5358 43° Northeast 183 211 7,000 77 Level Indianapolis Center
Tue 07:56:37 PM 40.1392 -83.4903 43° Northeast 182 209 7,100 -51 Climbing Indianapolis Center
Tue 07:57:33 PM 40.1789 -83.4433 42° Northeast 182 209 6,900  Descending Indianapolis Center
Tue 07:58:40 PM 40.2236 -83.3961 39° Northeast 182 209 7,100 52 Climbing Indianapolis Center
Tue 07:59:28 PM 40.2522 -83.3567 46° Northeast 187 215 7,000 -95 Descending Indianapolis Center
Tue 07:59:43 PM 40.2600 -83.3475 42° Northeast 183 211 7,000 -90 Level Indianapolis Center
Tue 08:00:35 PM 40.2936 -83.3044 44° Northeast 188 216 6,900 -49 Descending Indianapolis Center
Tue 08:01:46 PM 40.3369 -83.2522 43° Northeast 188 216 6,900 45 Level Indianapolis Center
Tue 08:02:48 PM 40.3744 -83.2053 44° Northeast 187 215 7,000  Climbing Indianapolis Center
Tue 08:03:49 PM 40.4128 -83.1586 43° Northeast 187 215 6,900 -49 Descending Indianapolis Center
Tue 08:04:51 PM 40.4489 -83.1103 46° Northeast 185 213 6,900  Level Indianapolis Center
Tue 08:05:53 PM 40.4869 -83.0636 43° Northeast 185 213 6,900  Level Indianapolis Center
Tue 08:06:54 PM 40.5239 -83.0158 45° Northeast 187 215 6,900  Level Indianapolis Center
Tue 08:07:56 PM 40.5683 -82.9622 42° Northeast 186 214 6,900 49 Level Indianapolis Center
Tue 08:08:57 PM 40.6050 -82.9150 44° Northeast 184 212 7,000 49 Climbing Indianapolis Center
Tue 08:09:59 PM 40.6458 -82.8692 40° Northeast 190 219 7,000 -49 Level Indianapolis Center
Tue 08:11:00 PM 40.6839 -82.8217 43° Northeast 189 217 6,900 -49 Descending Indianapolis Center
Tue 08:12:02 PM 40.7219 -82.7761 42° Northeast 185 213 6,900  Level Indianapolis Center
Tue 08:13:04 PM 40.7611 -82.7292 42° Northeast 188 216 6,900 -244 Level Indianapolis Center
Tue 08:14:05 PM 40.8011 -82.6783 44° Northeast 196 226 6,400 -492 Descending Indianapolis Center

Login

Don't have an account? Register now (free) for customized features, flight alerts, and more!